createdAt,value
2017-09-06T00:00:22.560Z,101114.37
2017-09-06T00:02:25.019Z,101116.11
2017-09-06T00:04:27.639Z,101117.47
2017-09-06T00:06:30.109Z,101114.37
2017-09-06T00:08:32.688Z,101116.23
2017-09-06T00:10:35.192Z,101109.04
2017-09-06T00:12:37.656Z,101112.17
2017-09-06T00:14:40.133Z,101115.18
2017-09-06T00:16:42.595Z,101112.59
2017-09-06T00:18:45.033Z,101112.59
2017-09-06T00:20:47.498Z,101116.66
2017-09-06T00:22:50.016Z,101111.75
2017-09-06T00:24:52.488Z,101115.39
2017-09-06T00:26:54.954Z,101118.63
2017-09-06T00:28:57.421Z,101109.65
2017-09-06T00:30:59.914Z,101112.27
2017-09-06T00:33:02.348Z,101103.29
2017-09-06T00:35:04.829Z,101106.00
2017-09-06T00:37:07.328Z,101110.91
2017-09-06T00:39:09.769Z,101115.06
2017-09-06T00:41:12.348Z,101108.80
2017-09-06T00:43:14.789Z,101107.36
2017-09-06T00:45:17.290Z,101107.78
2017-09-06T00:47:19.828Z,101109.65
2017-09-06T00:49:22.394Z,101099.23
2017-09-06T00:51:24.964Z,101100.58
2017-09-06T00:53:27.428Z,101100.67
2017-09-06T00:55:29.872Z,101097.87
2017-09-06T00:57:32.310Z,101091.19
2017-09-06T00:59:35.005Z,101088.05
2017-09-06T01:01:37.458Z,101086.41
2017-09-06T01:03:40.033Z,101090.05
2017-09-06T01:05:42.516Z,101081.92
2017-09-06T01:07:44.948Z,101086.83
2017-09-06T01:09:47.391Z,101083.18
2017-09-06T01:11:49.867Z,101078.15
2017-09-06T01:13:52.446Z,101078.15
2017-09-06T01:15:54.885Z,101084.41
2017-09-06T01:17:57.489Z,101069.62
2017-09-06T01:20:00.072Z,101080.14
2017-09-06T01:22:02.555Z,101072.85
2017-09-06T01:24:05.104Z,101069.39
2017-09-06T01:26:07.657Z,101062.95
2017-09-06T01:28:10.093Z,101053.13
2017-09-06T01:30:12.752Z,101063.36
2017-09-06T01:32:15.217Z,101063.78
2017-09-06T01:34:17.658Z,101063.15
2017-09-06T01:36:20.204Z,101060.14
2017-09-06T01:38:22.669Z,101059.30
2017-09-06T01:40:25.230Z,101058.37
2017-09-06T01:42:27.850Z,101058.04
2017-09-06T01:44:30.351Z,101060.84
2017-09-06T01:46:32.940Z,101062.52
2017-09-06T01:48:35.397Z,101062.62
2017-09-06T01:50:37.864Z,101058.55
2017-09-06T01:52:42.453Z,101058.55
2017-09-06T01:54:45.026Z,101055.33
2017-09-06T01:56:47.541Z,101057.62
2017-09-06T01:58:49.983Z,101050.00
2017-09-06T02:00:52.533Z,101048.32
2017-09-06T02:02:55.216Z,101043.13
2017-09-06T02:04:57.697Z,101039.58
2017-09-06T02:07:00.257Z,101038.31
2017-09-06T02:09:02.690Z,101041.87
2017-09-06T02:11:05.150Z,101032.38
2017-09-06T02:13:07.644Z,101033.41
2017-09-06T02:15:10.169Z,101029.16
2017-09-06T02:17:12.689Z,101029.58
2017-09-06T02:19:15.225Z,101026.45
2017-09-06T02:21:17.696Z,101023.22
2017-09-06T02:23:20.221Z,101021.55
2017-09-06T02:25:22.725Z,101013.50
2017-09-06T02:27:25.196Z,101003.72
2017-09-06T02:29:27.774Z,101009.44
2017-09-06T02:31:30.341Z,101009.14
2017-09-06T02:33:32.773Z,101009.14
2017-09-06T02:35:35.213Z,101009.44
2017-09-06T02:37:37.666Z,101013.50
2017-09-06T02:39:40.142Z,101007.27
2017-09-06T02:41:42.609Z,101006.86
2017-09-06T02:43:45.231Z,101001.11
2017-09-06T02:45:47.700Z,100995.59
2017-09-06T02:47:50.210Z,101000.59
2017-09-06T02:49:52.674Z,100994.33
2017-09-06T02:51:55.117Z,101001.53
2017-09-06T02:53:58.813Z,100991.62
2017-09-06T02:56:01.318Z,100997.46
2017-09-06T02:58:03.856Z,100986.11
2017-09-06T03:00:06.429Z,100988.81
2017-09-06T03:02:09.000Z,100987.14
2017-09-06T03:04:11.505Z,100986.63
2017-09-06T03:06:13.977Z,100986.20
2017-09-06T03:08:16.453Z,100985.36
2017-09-06T03:10:19.063Z,100983.49
2017-09-06T03:12:21.665Z,100978.40
2017-09-06T03:14:24.223Z,100979.42
2017-09-06T03:16:26.737Z,100969.94
2017-09-06T03:18:29.212Z,100976.72
2017-09-06T03:20:31.731Z,100968.26
2017-09-06T03:22:34.178Z,100967.23
2017-09-06T03:24:36.613Z,100967.65
2017-09-06T03:26:39.076Z,100967.75
2017-09-06T03:28:41.573Z,100964.00
2017-09-06T03:30:44.029Z,100966.20
2017-09-06T03:32:46.604Z,100963.59
2017-09-06T03:34:49.118Z,100962.23
2017-09-06T03:36:51.713Z,100956.91
2017-09-06T03:38:54.220Z,100955.64
2017-09-06T03:40:56.661Z,100958.68
2017-09-06T03:42:59.121Z,100955.13
2017-09-06T03:45:01.586Z,100953.16
2017-09-06T03:47:04.108Z,100972.65
2017-09-06T03:49:06.544Z,100966.81
2017-09-06T03:51:09.028Z,100968.68
2017-09-06T03:53:11.502Z,100970.55
2017-09-06T03:55:15.110Z,100969.61
2017-09-06T03:57:17.716Z,100968.68
2017-09-06T03:59:20.149Z,100969.61
2017-09-06T04:01:22.604Z,100969.19
2017-09-06T04:03:25.148Z,100966.91
2017-09-06T04:05:27.608Z,100968.26
2017-09-06T04:07:30.036Z,100961.06
2017-09-06T04:09:32.537Z,100955.77
2017-09-06T04:11:34.969Z,100955.77
2017-09-06T04:13:37.480Z,100955.34
2017-09-06T04:15:39.969Z,100955.34
2017-09-06T04:17:42.478Z,100952.09
2017-09-06T04:19:44.954Z,100948.03
2017-09-06T04:21:47.457Z,100944.80
2017-09-06T04:23:49.892Z,100950.73
2017-09-06T04:25:52.342Z,100945.73
2017-09-06T04:27:54.812Z,100952.94
2017-09-06T04:29:57.312Z,100944.93
2017-09-06T04:31:59.780Z,100949.00
2017-09-06T04:34:02.346Z,100953.06
2017-09-06T04:36:04.829Z,100952.64
2017-09-06T04:38:07.315Z,100951.70
2017-09-06T04:40:09.772Z,100955.45
2017-09-06T04:42:12.321Z,100955.45
2017-09-06T04:44:14.969Z,100954.52
2017-09-06T04:46:17.487Z,100960.12
2017-09-06T04:48:20.012Z,100958.67
2017-09-06T04:50:22.452Z,100963.58
2017-09-06T04:52:24.953Z,100962.22
2017-09-06T04:54:27.448Z,100960.34
2017-09-06T04:56:31.531Z,100962.42
2017-09-06T04:58:34.036Z,100957.12
2017-09-06T05:00:36.570Z,100954.09
2017-09-06T05:02:39.176Z,100954.41
2017-09-06T05:04:41.849Z,100966.70
2017-09-06T05:06:44.332Z,100965.86
2017-09-06T05:08:46.880Z,100968.58
2017-09-06T05:10:50.287Z,100961.70
2017-09-06T05:12:52.834Z,100966.19
2017-09-06T05:14:55.295Z,100967.12
2017-09-06T05:16:57.784Z,100974.09
2017-09-06T05:19:00.341Z,100972.42
2017-09-06T05:21:02.776Z,100974.41
2017-09-06T05:23:05.354Z,100972.13
2017-09-06T05:25:07.798Z,100972.97
2017-09-06T05:27:10.272Z,100982.33
2017-09-06T05:29:12.828Z,100981.52
2017-09-06T05:31:15.262Z,100975.03
2017-09-06T05:33:17.773Z,100977.84
2017-09-06T05:35:20.513Z,100979.09
2017-09-06T05:37:22.982Z,100985.36
2017-09-06T05:39:25.496Z,100981.63
2017-09-06T05:41:28.030Z,100986.95
2017-09-06T05:43:30.460Z,100981.52
2017-09-06T05:45:33.004Z,100987.66
2017-09-06T05:47:35.475Z,100984.11
2017-09-06T05:49:37.947Z,100984.86
2017-09-06T05:51:40.463Z,100988.08
2017-09-06T05:53:42.955Z,100995.08
2017-09-06T05:55:45.415Z,100993.17
2017-09-06T05:57:49.015Z,100997.47
2017-09-06T05:59:51.484Z,100993.84
2017-09-06T06:04:43.733Z,100999.45
2017-09-06T06:06:46.232Z,101001.47
2017-09-06T06:08:49.802Z,101001.56
2017-09-06T06:10:53.239Z,101002.50
2017-09-06T06:12:56.717Z,101003.34
2017-09-06T06:14:59.258Z,101001.34
2017-09-06T06:17:02.688Z,100999.17
2017-09-06T06:19:05.196Z,101016.80
2017-09-06T06:21:07.795Z,101008.78
2017-09-06T06:23:10.241Z,101010.84
2017-09-06T06:25:12.759Z,101008.37
2017-09-06T06:27:15.241Z,101015.14
2017-09-06T06:29:17.750Z,101026.27
2017-09-06T06:31:20.287Z,101023.21
2017-09-06T06:33:22.729Z,101025.34
2017-09-06T06:35:25.181Z,101038.90
2017-09-06T06:37:27.654Z,101035.48
2017-09-06T06:39:31.097Z,101036.70
2017-09-06T06:41:33.532Z,101038.48
2017-09-06T06:43:36.900Z,101036.83
2017-09-06T06:45:39.434Z,101046.01
2017-09-06T06:47:41.910Z,101042.98
2017-09-06T06:49:44.381Z,101041.44
2017-09-06T06:51:46.840Z,101040.79
2017-09-06T06:53:49.377Z,101045.61
2017-09-06T06:55:51.851Z,101039.85
2017-09-06T06:57:55.177Z,101048.64
2017-09-06T06:59:57.608Z,101069.80
2017-09-06T07:02:00.094Z,101057.50
2017-09-06T07:04:02.529Z,101058.58
2017-09-06T07:06:04.973Z,101071.50
2017-09-06T07:08:07.514Z,101063.59
2017-09-06T07:10:09.963Z,101072.25
2017-09-06T07:12:12.451Z,101069.02
2017-09-06T07:14:14.936Z,101075.38
2017-09-06T07:16:17.382Z,101078.39
2017-09-06T07:18:19.829Z,101087.08
2017-09-06T07:20:22.356Z,101087.07
2017-09-06T07:22:24.904Z,101082.88
2017-09-06T07:24:27.393Z,101102.00
2017-09-06T07:26:29.920Z,101100.64
2017-09-06T07:28:33.343Z,101100.41
2017-09-06T07:30:35.818Z,101111.27
2017-09-06T07:32:38.348Z,101109.72
2017-09-06T07:34:40.861Z,101111.08
2017-09-06T07:36:43.355Z,101117.30
2017-09-06T07:38:45.919Z,101127.77
2017-09-06T07:40:48.348Z,101127.66
2017-09-06T07:42:50.843Z,101134.24
2017-09-06T07:44:53.323Z,101145.63
2017-09-06T07:46:55.788Z,101144.27
2017-09-06T07:48:58.300Z,101151.68
2017-09-06T07:51:00.820Z,101159.02
2017-09-06T07:53:03.288Z,101160.25
2017-09-06T07:55:05.747Z,101173.30
2017-09-06T07:57:08.299Z,101173.94
2017-09-06T07:59:11.662Z,101181.95
2017-09-06T08:01:14.149Z,101190.63
2017-09-06T08:03:16.608Z,101179.37
2017-09-06T08:05:19.048Z,101190.11
2017-09-06T08:07:21.562Z,101193.34
2017-09-06T08:09:24.054Z,101193.58
2017-09-06T08:11:26.491Z,101190.13
2017-09-06T08:13:29.002Z,101199.20
2017-09-06T08:15:31.474Z,101199.86
2017-09-06T08:17:33.929Z,101202.58
2017-09-06T08:19:36.389Z,101204.77
2017-09-06T08:21:38.916Z,101217.70
2017-09-06T08:23:41.353Z,101215.83
2017-09-06T08:25:43.804Z,101222.63
2017-09-06T08:27:46.265Z,101227.26
2017-09-06T08:29:48.843Z,101225.97
2017-09-06T08:31:51.295Z,101233.34
2017-09-06T08:33:53.891Z,101228.44
2017-09-06T08:35:56.421Z,101234.72
2017-09-06T08:37:58.968Z,101235.86
2017-09-06T08:40:01.502Z,101226.03
2017-09-06T08:42:03.973Z,101230.23
2017-09-06T08:44:06.414Z,101229.90
2017-09-06T08:46:08.873Z,101233.55
2017-09-06T08:48:11.316Z,101234.72
2017-09-06T08:50:13.772Z,101246.95
2017-09-06T08:52:16.236Z,101241.94
2017-09-06T08:54:18.780Z,101250.47
2017-09-06T08:56:21.232Z,101245.04
2017-09-06T08:58:23.721Z,101249.86
2017-09-06T09:00:27.808Z,101253.31
2017-09-06T09:02:30.257Z,101259.88
2017-09-06T09:04:32.822Z,101253.08
2017-09-06T09:06:35.288Z,101257.37
2017-09-06T09:08:37.724Z,101259.25
2017-09-06T09:10:40.234Z,101259.45
2017-09-06T09:12:42.700Z,101255.80
2017-09-06T09:14:45.236Z,101261.89
2017-09-06T09:16:47.705Z,101271.70
2017-09-06T09:18:50.150Z,101260.97
2017-09-06T09:20:52.689Z,101269.20
2017-09-06T09:22:55.160Z,101272.87
2017-09-06T09:24:58.302Z,101276.95
2017-09-06T09:27:00.732Z,101271.09
2017-09-06T09:29:03.285Z,101276.86
2017-09-06T09:31:05.757Z,101276.44
2017-09-06T09:33:08.199Z,101267.97
2017-09-06T09:35:10.797Z,101274.87
2017-09-06T09:37:13.240Z,101277.81
2017-09-06T09:39:15.752Z,101266.95
2017-09-06T09:41:18.374Z,101274.03
2017-09-06T09:43:20.883Z,101286.16
2017-09-06T09:45:23.417Z,101278.02
2017-09-06T09:47:25.988Z,101264.43
2017-09-06T09:49:28.422Z,101271.33
2017-09-06T09:51:30.889Z,101273.42
2017-09-06T09:53:33.444Z,101271.03
2017-09-06T09:55:35.881Z,101275.81
2017-09-06T09:57:38.414Z,101276.47
2017-09-06T09:59:41.021Z,101274.25
2017-09-06T10:01:44.856Z,101281.57
2017-09-06T10:03:47.331Z,101273.00
2017-09-06T10:05:49.928Z,101273.20
2017-09-06T10:07:52.430Z,101280.32
2017-09-06T10:09:54.899Z,101271.75
2017-09-06T10:11:59.857Z,101266.55
2017-09-06T10:14:02.318Z,101278.88
2017-09-06T10:16:04.774Z,101270.39
2017-09-06T10:18:07.250Z,101270.39
2017-09-06T10:20:09.692Z,101271.14
2017-09-06T10:22:12.177Z,101278.65
2017-09-06T10:24:14.633Z,101278.64
2017-09-06T10:26:17.068Z,101271.85
2017-09-06T10:28:19.553Z,101279.81
2017-09-06T10:30:22.008Z,101271.34
2017-09-06T10:32:24.442Z,101279.06
2017-09-06T10:34:26.976Z,101286.18
2017-09-06T10:36:29.508Z,101278.88
2017-09-06T10:38:31.997Z,101285.45
2017-09-06T10:40:34.433Z,101283.70
2017-09-06T10:42:36.984Z,101287.87
2017-09-06T10:44:39.435Z,101290.87
2017-09-06T10:46:41.957Z,101291.71
2017-09-06T10:48:45.506Z,101296.53
2017-09-06T10:50:47.977Z,101298.83
2017-09-06T10:52:50.481Z,101303.75
2017-09-06T10:54:52.946Z,101297.99
2017-09-06T10:56:55.456Z,101304.17
2017-09-06T10:58:57.955Z,101307.51
2017-09-06T11:01:00.422Z,101296.03
2017-09-06T11:03:02.960Z,101302.40
2017-09-06T11:05:05.509Z,101306.48
2017-09-06T11:07:07.988Z,101296.65
2017-09-06T11:09:10.429Z,101300.02
2017-09-06T11:11:12.942Z,101298.94
2017-09-06T11:13:15.421Z,101298.09
2017-09-06T11:15:17.859Z,101295.50
2017-09-06T11:17:20.412Z,101282.33
2017-09-06T11:19:22.984Z,101289.12
2017-09-06T11:21:25.467Z,101269.27
2017-09-06T11:23:27.942Z,101286.70
2017-09-06T11:25:30.424Z,101285.98
2017-09-06T11:27:32.939Z,101281.06
2017-09-06T11:29:35.492Z,101285.32
2017-09-06T11:31:38.048Z,101294.41
2017-09-06T11:33:40.564Z,101272.26
2017-09-06T11:35:43.045Z,101278.97
2017-09-06T11:37:45.517Z,101293.91
2017-09-06T11:39:47.972Z,101270.91
2017-09-06T11:41:50.408Z,101288.80
2017-09-06T11:43:52.933Z,101290.06
2017-09-06T11:45:56.353Z,101291.94
2017-09-06T11:47:58.846Z,101284.08
2017-09-06T11:50:01.339Z,101289.73
2017-09-06T11:52:03.797Z,101288.05
2017-09-06T11:54:06.372Z,101282.42
2017-09-06T11:56:08.898Z,101292.02
2017-09-06T11:58:11.353Z,101291.83
2017-09-06T12:00:13.792Z,101290.76
2017-09-06T12:02:16.276Z,101285.03
2017-09-06T12:04:19.626Z,101297.97
2017-09-06T12:06:22.097Z,101288.27
2017-09-06T12:08:24.659Z,101286.16
2017-09-06T12:10:27.144Z,101282.60
2017-09-06T12:12:29.588Z,101283.96
2017-09-06T12:14:32.074Z,101288.68
2017-09-06T12:16:34.649Z,101294.30
2017-09-06T12:18:37.180Z,101275.94
2017-09-06T12:20:39.703Z,101280.02
2017-09-06T12:22:42.188Z,101290.45
2017-09-06T12:24:44.640Z,101289.60
2017-09-06T12:26:47.132Z,101290.74
2017-09-06T12:28:49.592Z,101293.05
2017-09-06T12:30:52.204Z,101291.92
2017-09-06T12:32:55.903Z,101297.84
2017-09-06T12:34:58.448Z,101298.79
2017-09-06T12:37:02.722Z,101312.70
2017-09-06T12:39:05.309Z,101302.02
2017-09-06T12:41:07.841Z,101311.44
2017-09-06T12:43:10.358Z,101311.58
2017-09-06T12:45:12.818Z,101309.73
2017-09-06T12:47:15.324Z,101311.07
2017-09-06T12:49:17.900Z,101316.22
2017-09-06T12:51:20.424Z,101313.91
2017-09-06T12:53:22.900Z,101315.58
2017-09-06T12:55:25.431Z,101312.63
2017-09-06T12:57:28.034Z,101318.97
2017-09-06T12:59:30.478Z,101309.69
2017-09-06T13:01:32.920Z,101312.84
2017-09-06T13:03:35.479Z,101311.08
2017-09-06T13:05:38.959Z,101306.58
2017-09-06T13:07:41.406Z,101301.06
2017-09-06T13:09:43.904Z,101304.30
2017-09-06T13:11:46.346Z,101302.98
2017-09-06T13:13:48.842Z,101307.44
2017-09-06T13:15:51.301Z,101304.81
2017-09-06T13:17:53.798Z,101304.05
2017-09-06T13:19:56.277Z,101297.99
2017-09-06T13:21:58.811Z,101306.02
2017-09-06T13:24:01.354Z,101307.16
2017-09-06T13:26:03.829Z,101309.58
2017-09-06T13:28:06.363Z,101313.72
2017-09-06T13:30:09.868Z,101321.84
2017-09-06T13:32:12.326Z,101318.71
2017-09-06T13:34:15.567Z,101322.76
2017-09-06T13:36:18.176Z,101323.72
2017-09-06T13:38:20.750Z,101324.34
2017-09-06T13:40:24.208Z,101327.86
2017-09-06T13:42:26.657Z,101328.09
2017-09-06T13:44:29.157Z,101314.36
2017-09-06T13:46:31.631Z,101323.47
2017-09-06T13:48:34.081Z,101332.53
2017-09-06T13:50:36.550Z,101323.39
2017-09-06T13:52:39.141Z,101328.81
2017-09-06T13:54:41.609Z,101322.57
2017-09-06T13:56:44.144Z,101319.95
2017-09-06T13:58:46.611Z,101317.98
2017-09-06T14:00:49.088Z,101322.05
2017-09-06T14:02:51.550Z,101318.37
2017-09-06T14:04:54.104Z,101315.98
2017-09-06T14:06:57.448Z,101309.94
2017-09-06T14:08:59.990Z,101304.80
2017-09-06T14:11:02.462Z,101311.37
2017-09-06T14:13:04.974Z,101308.16
2017-09-06T14:15:07.427Z,101317.17
2017-09-06T14:17:10.076Z,101307.41
2017-09-06T14:19:12.561Z,101328.64
2017-09-06T14:21:15.017Z,101312.68
2017-09-06T14:23:17.588Z,101316.23
2017-09-06T14:25:20.040Z,101317.05
2017-09-06T14:27:22.475Z,101317.05
2017-09-06T14:29:24.965Z,101317.69
2017-09-06T14:31:27.440Z,101329.41
2017-09-06T14:33:29.941Z,101324.90
2017-09-06T14:35:32.520Z,101319.05
2017-09-06T14:37:35.028Z,101321.86
2017-09-06T14:39:37.487Z,101334.59
2017-09-06T14:41:41.371Z,101318.09
2017-09-06T14:43:43.817Z,101319.88
2017-09-06T14:45:46.297Z,101322.36
2017-09-06T14:47:49.782Z,101324.67
2017-09-06T14:49:53.185Z,101330.23
2017-09-06T14:51:55.716Z,101330.51
2017-09-06T14:53:58.289Z,101320.50
2017-09-06T14:56:00.797Z,101343.91
2017-09-06T14:58:03.285Z,101328.12
2017-09-06T15:00:05.790Z,101326.86
2017-09-06T15:02:08.241Z,101333.13
2017-09-06T15:04:10.712Z,101326.35
2017-09-06T15:06:13.297Z,101330.52
2017-09-06T15:08:15.928Z,101325.42
2017-09-06T15:10:18.493Z,101324.38
2017-09-06T15:12:21.071Z,101325.09
2017-09-06T15:14:23.535Z,101326.77
2017-09-06T15:16:26.012Z,101330.09
2017-09-06T15:18:30.405Z,101324.57
2017-09-06T15:20:35.673Z,101330.23
2017-09-06T15:22:38.173Z,101322.47
2017-09-06T15:24:40.809Z,101327.56
2017-09-06T15:26:43.362Z,101324.31
2017-09-06T15:28:45.850Z,101332.81
2017-09-06T15:30:48.397Z,101325.02
2017-09-06T15:32:50.968Z,101326.66
2017-09-06T15:34:53.568Z,101320.02
2017-09-06T15:36:56.966Z,101319.53
2017-09-06T15:38:59.417Z,101322.36
2017-09-06T15:41:01.864Z,101319.80
2017-09-06T15:43:05.234Z,101318.78
2017-09-06T15:45:07.692Z,101327.14
2017-09-06T15:47:10.129Z,101327.84
2017-09-06T15:49:12.613Z,101324.97
2017-09-06T15:51:15.173Z,101324.36
2017-09-06T15:53:17.746Z,101328.94
2017-09-06T15:55:20.307Z,101328.47
2017-09-06T15:57:22.893Z,101323.64
2017-09-06T15:59:25.414Z,101331.58
2017-09-06T16:01:27.896Z,101332.46
2017-09-06T16:03:30.351Z,101333.62
2017-09-06T16:05:32.851Z,101332.81
2017-09-06T16:07:35.366Z,101332.84
2017-09-06T16:09:39.469Z,101349.83
2017-09-06T16:11:41.964Z,101360.77
2017-09-06T16:13:45.481Z,101377.03
2017-09-06T16:15:47.965Z,101370.53
2017-09-06T16:17:50.513Z,101364.95
2017-09-06T16:19:53.043Z,101373.58
2017-09-06T16:21:55.552Z,101369.00
2017-09-06T16:23:58.178Z,101363.81
2017-09-06T16:26:00.679Z,101355.98
2017-09-06T16:28:03.146Z,101355.45
2017-09-06T16:30:05.592Z,101354.96
2017-09-06T16:32:08.064Z,101352.16
2017-09-06T16:34:10.599Z,101349.03
2017-09-06T16:36:13.050Z,101343.33
2017-09-06T16:38:15.524Z,101344.51
2017-09-06T16:40:17.957Z,101346.19
2017-09-06T16:42:20.479Z,101341.09
2017-09-06T16:44:23.093Z,101348.44
2017-09-06T16:46:25.536Z,101344.34
2017-09-06T16:48:27.973Z,101345.19
2017-09-06T16:50:30.541Z,101345.70
2017-09-06T16:52:33.067Z,101344.59
2017-09-06T16:54:35.522Z,101342.88
2017-09-06T16:56:38.110Z,101342.27
2017-09-06T16:58:40.595Z,101345.92
2017-09-06T17:00:43.160Z,101342.10
2017-09-06T17:02:45.649Z,101354.78
2017-09-06T17:04:48.100Z,101339.36
2017-09-06T17:06:50.568Z,101346.95
2017-09-06T17:08:53.076Z,101352.83
2017-09-06T17:10:56.337Z,101352.58
2017-09-06T17:12:58.780Z,101353.67
2017-09-06T17:15:01.417Z,101356.83
2017-09-06T17:17:03.939Z,101354.87
2017-09-06T17:19:06.509Z,101357.03
2017-09-06T17:21:09.064Z,101353.88
2017-09-06T17:23:11.643Z,101360.92
2017-09-06T17:25:14.217Z,101353.21
2017-09-06T17:27:16.692Z,101355.25
2017-09-06T17:29:19.209Z,101362.80
2017-09-06T17:31:21.745Z,101356.61
2017-09-06T17:33:24.277Z,101356.16
2017-09-06T17:35:26.744Z,101367.60
2017-09-06T17:37:29.213Z,101364.17
2017-09-06T17:39:31.697Z,101367.22
2017-09-06T17:41:34.172Z,101371.37
2017-09-06T17:43:36.770Z,101368.69
2017-09-06T17:45:39.301Z,101373.13
2017-09-06T17:47:41.761Z,101377.21
2017-09-06T17:49:44.284Z,101375.16
2017-09-06T17:51:46.793Z,101374.61
2017-09-06T17:53:49.428Z,101376.72
2017-09-06T17:55:51.886Z,101375.28
2017-09-06T17:57:54.428Z,101373.28
2017-09-06T17:59:56.863Z,101384.47
2017-09-06T18:01:59.310Z,101382.16
2017-09-06T18:04:01.881Z,101384.03
2017-09-06T18:06:04.319Z,101389.22
2017-09-06T18:08:06.782Z,101388.81
2017-09-06T18:10:09.450Z,101389.69
2017-09-06T18:12:13.301Z,101390.04
2017-09-06T18:14:15.840Z,101388.14
2017-09-06T18:16:18.313Z,101399.12
2017-09-06T18:18:20.845Z,101393.20
2017-09-06T18:20:23.299Z,101391.27
2017-09-06T18:22:25.792Z,101404.40
2017-09-06T18:24:28.327Z,101402.83
2017-09-06T18:26:30.791Z,101394.93
2017-09-06T18:28:33.405Z,101399.19
2017-09-06T18:30:35.869Z,101402.02
2017-09-06T18:32:38.347Z,101408.60
2017-09-06T18:34:40.923Z,101405.54
2017-09-06T18:36:43.451Z,101415.38
2017-09-06T18:38:45.988Z,101414.16
2017-09-06T18:40:48.596Z,101422.95
2017-09-06T18:42:51.174Z,101424.25
2017-09-06T18:44:53.664Z,101422.56
2017-09-06T18:46:56.332Z,101420.98
2017-09-06T18:48:59.785Z,101425.47
2017-09-06T18:51:02.380Z,101429.83
2017-09-06T18:53:04.885Z,101428.52
2017-09-06T18:55:07.366Z,101434.45
2017-09-06T18:57:10.177Z,101431.45
2017-09-06T18:59:12.722Z,101430.98
2017-09-06T19:01:15.220Z,101426.97
2017-09-06T19:03:17.765Z,101428.05
2017-09-06T19:05:20.264Z,101431.14
2017-09-06T19:07:22.804Z,101438.72
2017-09-06T19:09:25.336Z,101435.59
2017-09-06T19:11:27.805Z,101437.88
2017-09-06T19:13:31.181Z,101439.35
2017-09-06T19:15:33.635Z,101438.56
2017-09-06T19:17:36.112Z,101444.23
2017-09-06T19:19:38.598Z,101443.37
2017-09-06T19:21:41.149Z,101449.19
2017-09-06T19:23:43.662Z,101449.53
2017-09-06T19:25:46.158Z,101447.03
2017-09-06T19:27:48.646Z,101446.51
2017-09-06T19:29:51.147Z,101451.00
2017-09-06T19:31:53.637Z,101456.25
2017-09-06T19:33:56.105Z,101455.36
2017-09-06T19:35:58.670Z,101458.73
2017-09-06T19:38:01.116Z,101451.73
2017-09-06T19:40:03.568Z,101451.68
2017-09-06T19:42:06.177Z,101450.45
2017-09-06T19:44:08.623Z,101459.94
2017-09-06T19:46:11.225Z,101455.58
2017-09-06T19:48:13.756Z,101449.70
2017-09-06T19:50:16.227Z,101456.14
2017-09-06T19:52:18.740Z,101454.83
2017-09-06T19:54:21.252Z,101462.94
2017-09-06T19:56:23.689Z,101457.53
2017-09-06T19:58:26.152Z,101459.31
2017-09-06T20:00:28.664Z,101459.94
2017-09-06T20:02:31.097Z,101459.56
2017-09-06T20:04:33.656Z,101454.35
2017-09-06T20:06:36.151Z,101462.27
2017-09-06T20:08:38.706Z,101460.45
2017-09-06T20:10:41.160Z,101460.33
2017-09-06T20:12:43.637Z,101455.71
2017-09-06T20:14:47.761Z,101459.31
2017-09-06T20:16:50.222Z,101453.84
2017-09-06T20:18:52.798Z,101450.85
2017-09-06T20:20:55.425Z,101456.22
2017-09-06T20:22:57.967Z,101457.62
2017-09-06T20:25:00.463Z,101453.13
2017-09-06T20:27:02.902Z,101453.94
2017-09-06T20:29:05.354Z,101451.36
2017-09-06T20:31:07.829Z,101452.83
2017-09-06T20:33:10.306Z,101449.12
2017-09-06T20:35:12.749Z,101447.92
2017-09-06T20:37:15.254Z,101455.76
2017-09-06T20:39:17.780Z,101448.52
2017-09-06T20:41:20.215Z,101450.67
2017-09-06T20:43:22.733Z,101448.52
2017-09-06T20:45:25.209Z,101444.63
2017-09-06T20:47:27.690Z,101439.17
2017-09-06T20:49:30.259Z,101443.44
2017-09-06T20:51:32.776Z,101438.48
2017-09-06T20:53:35.270Z,101436.97
2017-09-06T20:55:37.750Z,101434.34
2017-09-06T20:57:40.285Z,101438.20
2017-09-06T20:59:42.819Z,101437.81
2017-09-06T21:01:45.333Z,101435.74
2017-09-06T21:03:47.830Z,101430.37
2017-09-06T21:05:50.312Z,101432.69
2017-09-06T21:07:52.800Z,101438.88
2017-09-06T21:09:55.311Z,101435.44
2017-09-06T21:11:57.754Z,101436.04
2017-09-06T21:14:00.313Z,101430.70
2017-09-06T21:16:04.330Z,101427.02
2017-09-06T21:18:06.895Z,101430.49
2017-09-06T21:20:09.461Z,101432.34
2017-09-06T21:22:12.034Z,101434.05
2017-09-06T21:24:14.485Z,101426.34
2017-09-06T21:26:16.953Z,101429.36
2017-09-06T21:28:19.501Z,101430.11
2017-09-06T21:30:22.962Z,101433.66
2017-09-06T21:32:25.430Z,101434.64
2017-09-06T21:34:27.958Z,101428.34
2017-09-06T21:36:30.404Z,101434.05
2017-09-06T21:38:33.023Z,101420.47
2017-09-06T21:40:35.480Z,101416.35
2017-09-06T21:42:37.922Z,101422.58
2017-09-06T21:44:40.536Z,101423.69
2017-09-06T21:46:42.984Z,101419.58
2017-09-06T21:48:45.444Z,101421.95
2017-09-06T21:50:47.908Z,101417.24
2017-09-06T21:52:50.444Z,101425.29
2017-09-06T21:54:52.943Z,101421.90
2017-09-06T21:56:55.562Z,101422.32
2017-09-06T21:58:58.009Z,101419.95
2017-09-06T22:01:00.450Z,101420.59
2017-09-06T22:03:03.052Z,101419.87
2017-09-06T22:05:05.608Z,101414.37
2017-09-06T22:07:08.224Z,101418.26
2017-09-06T22:09:10.902Z,101408.02
2017-09-06T22:11:13.345Z,101411.91
2017-09-06T22:13:15.786Z,101411.75
2017-09-06T22:15:18.294Z,101406.41
2017-09-06T22:17:20.850Z,101410.52
2017-09-06T22:19:23.298Z,101409.46
2017-09-06T22:21:25.892Z,101407.89
2017-09-06T22:23:58.820Z,101415.17
2017-09-06T22:26:01.320Z,101409.42
2017-09-06T22:28:03.812Z,101414.88
2017-09-06T22:30:06.319Z,101412.80
2017-09-06T22:32:09.096Z,101414.50
2017-09-06T22:34:11.595Z,101408.23
2017-09-06T22:36:14.048Z,101415.22
2017-09-06T22:38:16.531Z,101414.20
2017-09-06T22:40:19.181Z,101412.84
2017-09-06T22:42:21.631Z,101414.37
2017-09-06T22:44:24.224Z,101416.31
2017-09-06T22:46:26.746Z,101413.23
2017-09-06T22:48:29.219Z,101412.05
2017-09-06T22:50:31.744Z,101412.17
2017-09-06T22:52:34.245Z,101412.59
2017-09-06T22:54:36.784Z,101418.09
2017-09-06T22:56:39.317Z,101413.27
2017-09-06T22:58:41.936Z,101413.56
2017-09-06T23:00:44.389Z,101416.41
2017-09-06T23:02:47.019Z,101410.56
2017-09-06T23:04:49.496Z,101415.85
2017-09-06T23:06:51.996Z,101415.14
2017-09-06T23:08:54.464Z,101416.78
2017-09-06T23:10:57.001Z,101414.88
2017-09-06T23:12:59.521Z,101412.39
2017-09-06T23:15:02.266Z,101409.38
2017-09-06T23:17:04.798Z,101413.10
2017-09-06T23:19:08.788Z,101410.77
2017-09-06T23:21:11.269Z,101412.56